createdAt,value
2023-05-15T00:00:37.547Z,2.20
2023-05-15T00:03:05.667Z,2.00
2023-05-15T00:05:34.959Z,2.20
2023-05-15T00:08:02.943Z,1.97
2023-05-15T00:10:30.785Z,2.10
2023-05-15T00:12:58.553Z,1.77
2023-05-15T00:15:27.016Z,2.20
2023-05-15T00:17:55.229Z,2.50
2023-05-15T00:20:23.242Z,2.43
2023-05-15T00:22:52.500Z,2.30
2023-05-15T00:25:20.794Z,2.40
2023-05-15T00:27:48.621Z,2.63
2023-05-15T00:30:16.641Z,2.53
2023-05-15T00:32:44.748Z,2.40
2023-05-15T00:35:12.679Z,2.53
2023-05-15T00:37:40.645Z,2.40
2023-05-15T00:40:11.520Z,2.50
2023-05-15T00:42:40.176Z,2.80
2023-05-15T00:45:10.960Z,2.60
2023-05-15T00:47:40.417Z,2.60
2023-05-15T00:50:10.530Z,2.73
2023-05-15T00:52:39.128Z,2.90
2023-05-15T00:55:07.659Z,2.60
2023-05-15T00:57:37.254Z,3.10
2023-05-15T01:00:07.118Z,2.90
2023-05-15T01:02:35.279Z,2.83
2023-05-15T01:05:03.332Z,2.77
2023-05-15T01:07:33.118Z,2.80
2023-05-15T01:10:02.291Z,2.33
2023-05-15T01:12:31.272Z,2.40
2023-05-15T01:15:01.009Z,2.93
2023-05-15T01:17:28.874Z,2.50
2023-05-15T01:19:58.227Z,2.30
2023-05-15T01:22:42.980Z,2.70
2023-05-15T01:25:45.841Z,2.67
2023-05-15T01:28:16.350Z,2.60
2023-05-15T01:30:45.230Z,2.83
2023-05-15T01:33:18.245Z,2.70
2023-05-15T01:35:49.852Z,3.03
2023-05-15T01:38:20.696Z,2.87
2023-05-15T01:40:49.746Z,2.80
2023-05-15T01:43:23.990Z,3.30
2023-05-15T01:45:51.836Z,3.00
2023-05-15T01:48:21.119Z,2.90
2023-05-15T01:50:50.858Z,3.00
2023-05-15T01:53:20.134Z,2.83
2023-05-15T01:55:48.112Z,2.77
2023-05-15T01:58:16.225Z,3.13
2023-05-15T02:00:45.952Z,2.87
2023-05-15T02:03:14.304Z,3.00
2023-05-15T02:05:42.959Z,2.80
2023-05-15T02:08:10.831Z,3.10
2023-05-15T02:10:38.632Z,3.00
2023-05-15T02:13:06.862Z,3.10
2023-05-15T02:15:35.017Z,2.93
2023-05-15T02:18:04.317Z,3.27
2023-05-15T02:20:35.021Z,3.10
2023-05-15T02:23:02.819Z,3.13
2023-05-15T02:25:39.128Z,2.80
2023-05-15T02:28:09.004Z,3.03
2023-05-15T02:30:45.152Z,2.90
2023-05-15T02:33:23.442Z,2.90
2023-05-15T02:35:54.382Z,3.50
2023-05-15T02:38:27.118Z,3.80
2023-05-15T02:40:57.077Z,2.90
2023-05-15T02:43:25.299Z,3.50
2023-05-15T02:45:53.969Z,3.03
2023-05-15T02:48:23.266Z,2.80
2023-05-15T02:50:51.117Z,3.03
2023-05-15T02:53:18.891Z,3.13
2023-05-15T02:55:46.691Z,3.17
2023-05-15T02:58:14.553Z,3.30
2023-05-15T03:00:42.406Z,3.20
2023-05-15T03:03:10.300Z,3.10
2023-05-15T03:05:39.549Z,2.90
2023-05-15T03:08:07.396Z,3.07
2023-05-15T03:10:35.203Z,3.00
2023-05-15T03:13:03.831Z,2.90
2023-05-15T03:15:31.649Z,3.00
2023-05-15T03:17:59.492Z,3.20
2023-05-15T03:20:27.308Z,3.00
2023-05-15T03:22:56.492Z,3.30
2023-05-15T03:25:24.657Z,2.77
2023-05-15T03:27:52.597Z,3.07
2023-05-15T03:30:20.602Z,3.10
2023-05-15T03:32:48.485Z,2.77
2023-05-15T03:35:16.694Z,2.77
2023-05-15T03:37:44.635Z,2.80
2023-05-15T03:40:15.195Z,2.50
2023-05-15T03:42:42.982Z,2.40
2023-05-15T03:45:11.325Z,2.60
2023-05-15T03:47:39.227Z,2.60
2023-05-15T03:50:07.999Z,2.40
2023-05-15T03:52:35.848Z,2.40
2023-05-15T03:55:03.735Z,2.77
2023-05-15T03:57:33.353Z,2.40
2023-05-15T04:00:03.935Z,2.23
2023-05-15T04:02:31.842Z,2.70
2023-05-15T04:04:59.692Z,2.40
2023-05-15T04:07:28.163Z,2.53
2023-05-15T04:09:55.968Z,2.53
2023-05-15T04:12:23.766Z,2.70
2023-05-15T04:14:52.970Z,2.30
2023-05-15T04:17:20.770Z,2.93
2023-05-15T04:19:48.732Z,2.67
2023-05-15T04:22:16.506Z,3.10
2023-05-15T04:24:44.292Z,2.73
2023-05-15T04:27:12.150Z,2.77
2023-05-15T04:29:39.992Z,2.97
2023-05-15T04:32:09.387Z,3.30
2023-05-15T04:34:37.311Z,3.30
2023-05-15T04:37:05.675Z,3.07
2023-05-15T04:39:33.440Z,3.47
2023-05-15T04:42:01.216Z,3.17
2023-05-15T04:44:29.030Z,3.30
2023-05-15T04:46:56.833Z,3.70
2023-05-15T04:49:26.067Z,3.50
2023-05-15T04:51:53.871Z,4.03
2023-05-15T04:54:21.857Z,4.07
2023-05-15T04:56:49.661Z,4.23
2023-05-15T04:59:18.269Z,4.40
2023-05-15T05:01:46.433Z,5.23
2023-05-15T05:04:14.692Z,5.40
2023-05-15T05:06:43.956Z,5.43
2023-05-15T05:09:11.789Z,6.10
2023-05-15T05:11:43.528Z,5.70
2023-05-15T05:14:11.320Z,6.63
2023-05-15T05:16:39.364Z,6.20
2023-05-15T05:19:07.488Z,6.57
2023-05-15T05:21:35.408Z,7.57
2023-05-15T05:24:04.776Z,7.70
2023-05-15T05:26:32.623Z,9.10
2023-05-15T05:29:00.430Z,11.97
2023-05-15T05:31:28.264Z,11.77
2023-05-15T05:33:56.276Z,14.83
2023-05-15T05:36:24.135Z,15.97
2023-05-15T05:38:51.969Z,19.50
2023-05-15T05:41:21.615Z,19.00
2023-05-15T05:43:52.945Z,20.23
2023-05-15T05:46:21.228Z,19.70
2023-05-15T05:48:49.038Z,20.67
2023-05-15T05:51:16.824Z,20.93
2023-05-15T05:53:44.639Z,20.67
2023-05-15T05:56:12.503Z,19.23
2023-05-15T05:58:41.678Z,20.23
2023-05-15T06:01:09.482Z,21.00
2023-05-15T06:03:37.847Z,22.93
2023-05-15T06:06:06.544Z,22.23
2023-05-15T06:08:34.370Z,22.27
2023-05-15T06:11:02.155Z,22.73
2023-05-15T06:13:29.956Z,23.40
2023-05-15T06:15:59.387Z,23.20
2023-05-15T06:18:27.295Z,25.43
2023-05-15T06:20:55.113Z,24.43
2023-05-15T06:23:24.386Z,22.77
2023-05-15T06:25:52.314Z,21.13
2023-05-15T06:28:20.100Z,20.70
2023-05-15T06:30:47.916Z,19.67
2023-05-15T06:33:17.157Z,20.63
2023-05-15T06:35:45.038Z,19.53
2023-05-15T06:38:12.789Z,20.77
2023-05-15T06:40:40.587Z,20.93
2023-05-15T06:43:08.380Z,20.93
2023-05-15T06:45:36.215Z,22.27
2023-05-15T06:48:04.062Z,21.70
2023-05-15T06:50:33.265Z,22.10
2023-05-15T06:53:01.300Z,23.73
2023-05-15T06:55:29.150Z,23.87
2023-05-15T06:57:57.019Z,23.97
2023-05-15T07:00:24.809Z,24.47
2023-05-15T07:02:52.688Z,25.27
2023-05-15T07:05:21.882Z,23.63
2023-05-15T07:07:51.037Z,24.03
2023-05-15T07:10:18.834Z,25.77
2023-05-15T07:12:46.642Z,24.30
2023-05-15T07:15:14.480Z,25.90
2023-05-15T07:17:42.308Z,24.77
2023-05-15T07:20:10.954Z,24.27
2023-05-15T07:22:51.857Z,23.67
2023-05-15T07:25:25.702Z,24.77
2023-05-15T07:27:53.801Z,24.63
2023-05-15T07:30:21.660Z,25.20
2023-05-15T07:32:49.531Z,24.77
2023-05-15T07:35:18.340Z,24.83
2023-05-15T07:37:46.446Z,25.20
2023-05-15T07:40:15.500Z,24.87
2023-05-15T07:42:45.846Z,23.67
2023-05-15T07:45:13.790Z,23.87
2023-05-15T07:47:46.380Z,24.67
2023-05-15T07:50:14.483Z,24.00
2023-05-15T07:52:43.126Z,25.33
2023-05-15T07:55:11.209Z,23.07
2023-05-15T07:57:40.781Z,24.10
2023-05-15T08:00:13.558Z,23.63
2023-05-15T08:02:42.644Z,22.93
2023-05-15T08:05:10.832Z,23.90
2023-05-15T08:07:38.701Z,23.97
2023-05-15T08:10:07.631Z,23.00
2023-05-15T08:12:35.522Z,22.27
2023-05-15T08:15:03.344Z,22.57
2023-05-15T08:17:32.503Z,22.80
2023-05-15T08:20:00.397Z,22.53
2023-05-15T08:22:30.645Z,19.73
2023-05-15T08:24:58.711Z,17.80
2023-05-15T08:27:26.788Z,19.23
2023-05-15T08:29:55.207Z,18.63
2023-05-15T08:32:23.484Z,19.43
2023-05-15T08:34:52.839Z,20.57
2023-05-15T08:37:20.794Z,19.70
2023-05-15T08:39:48.755Z,20.20
2023-05-15T08:42:22.503Z,71.33
2023-05-15T08:44:51.045Z,24.30
2023-05-15T08:47:20.194Z,21.10
2023-05-15T08:49:55.590Z,19.70
2023-05-15T08:52:23.680Z,18.80
2023-05-15T08:54:51.764Z,18.80
2023-05-15T08:57:19.731Z,19.03
2023-05-15T08:59:48.102Z,19.63
2023-05-15T09:02:17.224Z,18.73
2023-05-15T09:04:45.550Z,19.67
2023-05-15T09:07:15.633Z,18.47
2023-05-15T09:09:44.216Z,18.00
2023-05-15T09:12:12.687Z,17.67
2023-05-15T09:14:40.501Z,17.90
2023-05-15T09:17:08.645Z,16.70
2023-05-15T09:19:36.943Z,17.63
2023-05-15T09:22:18.296Z,16.37
2023-05-15T09:24:48.161Z,16.83
2023-05-15T09:27:16.258Z,16.87
2023-05-15T09:29:44.060Z,16.53
2023-05-15T09:32:13.941Z,16.43
2023-05-15T09:34:43.127Z,19.00
2023-05-15T09:37:12.378Z,18.70
2023-05-15T09:39:43.574Z,20.07
2023-05-15T09:42:12.731Z,19.70
2023-05-15T09:44:42.837Z,20.30
2023-05-15T09:47:11.197Z,19.77
2023-05-15T09:49:39.153Z,20.53
2023-05-15T09:52:09.389Z,21.10
2023-05-15T09:54:37.851Z,20.57
2023-05-15T09:57:11.324Z,19.50
2023-05-15T09:59:44.924Z,16.87
2023-05-15T10:02:15.236Z,18.43
2023-05-15T10:04:43.055Z,20.37
2023-05-15T10:07:10.981Z,19.67
2023-05-15T10:09:39.501Z,20.77
2023-05-15T10:12:10.987Z,20.63
2023-05-15T10:14:38.795Z,20.03
2023-05-15T10:17:06.670Z,20.43
2023-05-15T10:19:37.525Z,19.63
2023-05-15T10:22:10.162Z,20.00
2023-05-15T10:24:39.980Z,17.40
2023-05-15T10:27:08.014Z,18.90
2023-05-15T10:29:37.878Z,17.70
2023-05-15T10:32:06.129Z,17.53
2023-05-15T10:34:34.390Z,16.97
2023-05-15T10:37:02.374Z,17.17
2023-05-15T10:39:30.689Z,16.13
2023-05-15T10:41:58.933Z,16.20
2023-05-15T10:44:26.750Z,17.13
2023-05-15T10:46:56.593Z,15.67
2023-05-15T10:49:24.704Z,19.10
2023-05-15T10:51:53.918Z,18.17
2023-05-15T10:54:23.147Z,17.40
2023-05-15T10:56:52.224Z,16.97
2023-05-15T10:59:20.374Z,15.10
2023-05-15T11:01:49.239Z,15.93
2023-05-15T11:04:20.267Z,16.93
2023-05-15T11:06:49.117Z,15.07
2023-05-15T11:09:36.637Z,14.47
2023-05-15T11:12:06.129Z,15.00
2023-05-15T11:14:35.816Z,15.00
2023-05-15T11:17:05.344Z,13.20
2023-05-15T11:19:39.640Z,13.03
2023-05-15T11:22:21.111Z,13.13
2023-05-15T11:24:51.388Z,12.20
2023-05-15T11:27:20.405Z,11.97
2023-05-15T11:30:08.581Z,11.87
2023-05-15T11:32:43.866Z,10.60
2023-05-15T11:35:13.840Z,10.47
2023-05-15T11:37:43.985Z,9.82
2023-05-15T11:40:15.691Z,9.98
2023-05-15T11:42:43.493Z,9.85
2023-05-15T11:45:11.929Z,10.43
2023-05-15T11:47:39.719Z,10.80
2023-05-15T11:50:08.586Z,11.10
2023-05-15T11:52:38.016Z,9.07
2023-05-15T11:55:07.026Z,8.95
2023-05-15T11:57:34.875Z,8.98
2023-05-15T12:00:02.652Z,8.98
2023-05-15T12:02:30.531Z,8.48
2023-05-15T12:04:58.514Z,8.35
2023-05-15T12:07:26.472Z,7.47
2023-05-15T12:09:56.032Z,7.95
2023-05-15T12:12:26.946Z,8.27
2023-05-15T12:14:59.316Z,7.50
2023-05-15T12:17:27.734Z,8.80
2023-05-15T12:19:57.132Z,7.35
2023-05-15T12:22:24.923Z,5.95
2023-05-15T12:24:52.750Z,7.50
2023-05-15T12:27:21.926Z,8.35
2023-05-15T12:29:49.722Z,7.85
2023-05-15T12:32:17.790Z,7.68
2023-05-15T12:34:46.283Z,8.93
2023-05-15T12:37:14.576Z,8.40
2023-05-15T12:39:52.092Z,6.50
2023-05-15T12:42:21.279Z,9.13
2023-05-15T12:44:52.188Z,7.82
2023-05-15T12:47:27.815Z,7.68
2023-05-15T12:49:58.705Z,8.60
2023-05-15T12:52:29.627Z,8.73
2023-05-15T12:55:01.377Z,7.85
2023-05-15T12:57:30.845Z,9.43
2023-05-15T12:59:58.638Z,9.45
2023-05-15T13:02:26.433Z,8.15
2023-05-15T13:04:54.274Z,8.95
2023-05-15T13:07:22.704Z,9.35
2023-05-15T13:10:03.706Z,6.57
2023-05-15T13:12:38.271Z,6.55
2023-05-15T13:15:07.581Z,7.50
2023-05-15T13:17:36.167Z,8.23
2023-05-15T13:20:05.694Z,7.70
2023-05-15T13:22:33.525Z,8.35
2023-05-15T13:25:01.290Z,5.70
2023-05-15T13:27:29.052Z,6.25
2023-05-15T13:29:58.230Z,7.43
2023-05-15T13:32:26.046Z,6.85
2023-05-15T13:34:54.962Z,8.85
2023-05-15T13:37:22.992Z,8.55
2023-05-15T13:39:50.762Z,9.80
2023-05-15T13:42:18.573Z,9.57
2023-05-15T13:44:46.330Z,7.55
2023-05-15T13:47:15.617Z,7.55
2023-05-15T13:49:43.463Z,8.50
2023-05-15T13:52:11.259Z,7.97
2023-05-15T13:54:39.461Z,7.45
2023-05-15T13:57:07.253Z,6.95
2023-05-15T13:59:35.096Z,7.68
2023-05-15T14:02:02.956Z,8.00
2023-05-15T14:04:32.307Z,8.57
2023-05-15T14:07:00.214Z,8.57
2023-05-15T14:09:28.527Z,8.35
2023-05-15T14:11:56.404Z,7.53
2023-05-15T14:14:24.638Z,7.95
2023-05-15T14:16:52.841Z,8.07
2023-05-15T14:19:20.854Z,9.23
2023-05-15T14:21:50.175Z,8.27
2023-05-15T14:24:18.000Z,7.70
2023-05-15T14:26:46.091Z,6.47
2023-05-15T14:29:14.299Z,6.33
2023-05-15T14:31:42.453Z,6.03
2023-05-15T14:34:11.060Z,7.33
2023-05-15T14:36:38.807Z,6.20
2023-05-15T14:39:07.956Z,6.75
2023-05-15T14:41:35.749Z,6.07
2023-05-15T14:44:03.538Z,6.03
2023-05-15T14:46:31.326Z,5.88
2023-05-15T14:48:59.150Z,5.88
2023-05-15T14:51:26.929Z,6.30
2023-05-15T14:53:54.718Z,6.35
2023-05-15T14:56:23.924Z,6.30
2023-05-15T14:58:53.695Z,6.10
2023-05-15T15:01:21.642Z,5.82
2023-05-15T15:03:49.582Z,7.68
2023-05-15T15:06:17.590Z,7.97
2023-05-15T15:08:45.373Z,7.60
2023-05-15T15:11:13.202Z,6.03
2023-05-15T15:13:42.299Z,6.18
2023-05-15T15:16:10.192Z,5.35
2023-05-15T15:18:38.108Z,4.95
2023-05-15T15:21:06.217Z,5.63
2023-05-15T15:23:34.009Z,5.90
2023-05-15T15:26:01.809Z,5.50
2023-05-15T15:28:33.580Z,4.93
2023-05-15T15:31:02.806Z,5.30
2023-05-15T15:33:30.579Z,5.07
2023-05-15T15:35:58.344Z,5.28
2023-05-15T15:38:26.201Z,4.70
2023-05-15T15:40:53.990Z,3.75
2023-05-15T15:43:21.746Z,3.90
2023-05-15T15:45:49.584Z,7.28
2023-05-15T15:48:19.148Z,8.13
2023-05-15T15:50:47.423Z,8.40
2023-05-15T15:53:15.177Z,9.05
2023-05-15T15:55:44.158Z,8.50
2023-05-15T15:58:12.892Z,8.43
2023-05-15T16:00:41.247Z,9.57
2023-05-15T16:03:09.231Z,8.32
2023-05-15T16:05:38.427Z,9.30
2023-05-15T16:08:06.715Z,8.32
2023-05-15T16:10:34.478Z,8.50
2023-05-15T16:13:02.332Z,8.43
2023-05-15T16:15:30.104Z,8.45
2023-05-15T16:17:58.018Z,8.40
2023-05-15T16:20:26.248Z,8.23
2023-05-15T16:22:55.646Z,8.18
2023-05-15T16:25:23.544Z,9.05
2023-05-15T16:27:51.342Z,8.93
2023-05-15T16:30:19.224Z,9.10
2023-05-15T16:32:47.085Z,8.17
2023-05-15T16:35:14.880Z,8.60
2023-05-15T16:37:42.689Z,9.10
2023-05-15T16:40:12.860Z,9.47
2023-05-15T16:42:41.508Z,9.50
2023-05-15T16:45:10.177Z,7.63
2023-05-15T16:47:39.297Z,8.37
2023-05-15T16:50:08.265Z,7.47
2023-05-15T16:52:36.847Z,7.30
2023-05-15T16:55:05.038Z,7.40
2023-05-15T16:57:37.654Z,6.37
2023-05-15T17:00:07.592Z,6.00
2023-05-15T17:02:35.501Z,6.87
2023-05-15T17:05:03.698Z,6.38
2023-05-15T17:07:31.447Z,6.65
2023-05-15T17:09:59.304Z,5.73
2023-05-15T17:12:27.164Z,5.87
2023-05-15T17:14:58.577Z,5.47
2023-05-15T17:17:26.494Z,5.83
2023-05-15T17:19:54.351Z,5.07
2023-05-15T17:22:22.703Z,5.10
2023-05-15T17:24:52.361Z,5.03
2023-05-15T17:27:20.761Z,4.80
2023-05-15T17:29:49.020Z,4.97
2023-05-15T17:32:19.089Z,4.90
2023-05-15T17:34:47.315Z,4.43
2023-05-15T17:37:15.415Z,4.77
2023-05-15T17:39:43.215Z,4.50
2023-05-15T17:42:10.993Z,4.90
2023-05-15T17:44:39.305Z,4.40
2023-05-15T17:47:07.829Z,5.03
2023-05-15T17:49:37.012Z,4.93
2023-05-15T17:52:05.170Z,4.77
2023-05-15T17:54:32.962Z,4.60
2023-05-15T17:57:00.764Z,4.87
2023-05-15T17:59:29.153Z,4.63
2023-05-15T18:01:57.064Z,4.73
2023-05-15T18:04:25.090Z,4.20
2023-05-15T18:06:54.292Z,4.80
2023-05-15T18:09:24.264Z,4.63
2023-05-15T18:11:52.637Z,5.20
2023-05-15T18:14:20.496Z,5.00
2023-05-15T18:16:48.316Z,4.60
2023-05-15T18:19:16.184Z,4.50
2023-05-15T18:21:43.952Z,8.73
2023-05-15T18:24:13.133Z,7.10
2023-05-15T18:26:41.072Z,5.53
2023-05-15T18:29:08.898Z,5.63
2023-05-15T18:31:37.285Z,6.60
2023-05-15T18:34:05.249Z,5.50
2023-05-15T18:36:33.017Z,4.63
2023-05-15T18:39:02.476Z,5.27
2023-05-15T18:41:31.636Z,5.10
2023-05-15T18:43:59.452Z,5.33
2023-05-15T18:46:28.426Z,5.20
2023-05-15T18:48:56.402Z,5.87
2023-05-15T18:51:24.562Z,6.00
2023-05-15T18:53:52.374Z,11.13
2023-05-15T18:56:20.120Z,6.03
2023-05-15T18:58:49.323Z,6.03
2023-05-15T19:01:17.238Z,7.43
2023-05-15T19:03:45.163Z,7.17
2023-05-15T19:06:19.688Z,8.67
2023-05-15T19:08:48.316Z,10.23
2023-05-15T19:11:16.135Z,12.07
2023-05-15T19:13:43.885Z,10.87
2023-05-15T19:16:13.057Z,10.37
2023-05-15T19:18:40.886Z,12.07
2023-05-15T19:21:08.710Z,12.10
2023-05-15T19:23:36.474Z,12.13
2023-05-15T19:26:04.395Z,13.40
2023-05-15T19:28:32.264Z,11.70
2023-05-15T19:31:00.002Z,13.30
2023-05-15T19:33:29.445Z,12.57
2023-05-15T19:35:57.231Z,12.50
2023-05-15T19:38:24.981Z,12.90
2023-05-15T19:40:53.008Z,13.00
2023-05-15T19:43:20.765Z,13.13
2023-05-15T19:45:48.694Z,13.63
2023-05-15T19:48:16.574Z,13.43
2023-05-15T19:50:46.063Z,13.63
2023-05-15T19:53:13.848Z,14.40
2023-05-15T19:55:41.833Z,16.60
2023-05-15T19:58:09.678Z,13.97
2023-05-15T20:00:37.457Z,13.50
2023-05-15T20:03:05.504Z,13.73
2023-05-15T20:05:33.398Z,13.63
2023-05-15T20:08:02.574Z,13.47
2023-05-15T20:10:30.521Z,12.77
2023-05-15T20:12:58.356Z,11.17
2023-05-15T20:15:29.274Z,11.57
2023-05-15T20:17:57.140Z,12.23
2023-05-15T20:20:25.256Z,12.70
2023-05-15T20:22:53.285Z,12.00
2023-05-15T20:25:24.243Z,11.20
2023-05-15T20:27:56.415Z,11.80
2023-05-15T20:30:24.579Z,10.57
2023-05-15T20:32:52.774Z,10.50
2023-05-15T20:35:20.871Z,10.93
2023-05-15T20:37:48.609Z,10.53
2023-05-15T20:40:16.642Z,11.43
2023-05-15T20:42:45.986Z,10.27
2023-05-15T20:45:13.968Z,10.73
2023-05-15T20:47:45.407Z,10.53
2023-05-15T20:50:13.733Z,10.93
2023-05-15T20:52:41.741Z,11.37
2023-05-15T20:55:15.975Z,11.67
2023-05-15T20:57:49.379Z,13.33
2023-05-15T21:00:18.814Z,13.80
2023-05-15T21:02:47.516Z,13.87
2023-05-15T21:05:15.785Z,15.63
2023-05-15T21:07:44.479Z,15.57
2023-05-15T21:10:12.785Z,16.23
2023-05-15T21:12:42.168Z,15.63
2023-05-15T21:15:12.230Z,16.47
2023-05-15T21:17:40.973Z,18.70
2023-05-15T21:20:10.531Z,18.50
2023-05-15T21:22:38.417Z,18.80
2023-05-15T21:25:07.007Z,20.70
2023-05-15T21:27:34.893Z,21.87
2023-05-15T21:30:02.770Z,21.57
2023-05-15T21:32:32.020Z,23.50
2023-05-15T21:34:59.862Z,23.10
2023-05-15T21:37:28.210Z,24.23
2023-05-15T21:39:55.976Z,24.47
2023-05-15T21:42:23.906Z,23.83
2023-05-15T21:44:51.660Z,24.80
2023-05-15T21:47:19.538Z,26.40
2023-05-15T21:49:48.740Z,26.77
2023-05-15T21:52:16.668Z,26.73
2023-05-15T21:54:44.708Z,26.50
2023-05-15T21:57:12.529Z,26.80
2023-05-15T21:59:40.389Z,27.80
2023-05-15T22:02:08.346Z,28.20
2023-05-15T22:04:36.318Z,29.53
2023-05-15T22:07:05.854Z,30.93
2023-05-15T22:09:33.803Z,28.10
2023-05-15T22:12:01.637Z,33.00
2023-05-15T22:14:29.535Z,30.93
2023-05-15T22:16:57.350Z,33.00
2023-05-15T22:19:33.013Z,34.37
2023-05-15T22:22:01.907Z,34.33
2023-05-15T22:24:31.201Z,36.43
2023-05-15T22:26:59.061Z,36.80
2023-05-15T22:29:26.905Z,35.97
2023-05-15T22:31:55.181Z,36.80
2023-05-15T22:34:23.096Z,38.00
2023-05-15T22:36:50.841Z,37.13
2023-05-15T22:39:18.665Z,37.20
2023-05-15T22:41:47.890Z,37.37
2023-05-15T22:44:15.926Z,36.83
2023-05-15T22:46:44.060Z,36.70
2023-05-15T22:49:23.468Z,38.87
2023-05-15T22:51:51.603Z,38.73
2023-05-15T22:54:21.748Z,38.00
2023-05-15T22:56:52.181Z,37.27
2023-05-15T22:59:20.109Z,37.90
2023-05-15T23:01:49.225Z,35.87
2023-05-15T23:04:18.220Z,35.47
2023-05-15T23:06:46.419Z,35.97
2023-05-15T23:09:14.208Z,37.20
2023-05-15T23:11:42.214Z,38.60
2023-05-15T23:14:12.151Z,35.37
2023-05-15T23:16:39.960Z,36.07
2023-05-15T23:19:07.931Z,37.27
2023-05-15T23:21:36.367Z,37.30
2023-05-15T23:24:04.336Z,35.93
2023-05-15T23:26:32.337Z,35.07
2023-05-15T23:29:00.281Z,36.37
2023-05-15T23:31:29.552Z,34.83
2023-05-15T23:33:57.379Z,34.10
2023-05-15T23:36:25.417Z,34.07
2023-05-15T23:38:53.232Z,34.00
2023-05-15T23:41:21.989Z,33.80
2023-05-15T23:43:50.775Z,34.33
2023-05-15T23:46:18.875Z,35.07
2023-05-15T23:48:48.339Z,34.57
2023-05-15T23:51:16.524Z,32.70
2023-05-15T23:53:44.531Z,33.13
2023-05-15T23:56:12.280Z,32.37
2023-05-15T23:58:40.298Z,33.73
